sensor_id;sensor_type;location;lat;lon;timestamp;P1;durP1;ratioP1;P2;durP2;ratioP2
21188;SDS011;39071;52.420;20.896;2022-11-21T00:03:40;22.93;;;6.80;;
21188;SDS011;39071;52.420;20.896;2022-11-21T00:06:05;29.60;;;10.03;;
21188;SDS011;39071;52.420;20.896;2022-11-21T00:08:31;19.57;;;5.13;;
21188;SDS011;39071;52.420;20.896;2022-11-21T00:10:58;22.00;;;9.67;;
21188;SDS011;39071;52.420;20.896;2022-11-21T00:13:24;19.23;;;9.80;;
21188;SDS011;39071;52.420;20.896;2022-11-21T00:15:49;14.90;;;7.13;;
21188;SDS011;39071;52.420;20.896;2022-11-21T00:18:15;20.70;;;6.37;;
21188;SDS011;39071;52.420;20.896;2022-11-21T00:20:41;21.13;;;7.13;;
21188;SDS011;39071;52.420;20.896;2022-11-21T00:23:07;20.37;;;8.73;;
21188;SDS011;39071;52.420;20.896;2022-11-21T00:25:33;19.47;;;9.03;;
21188;SDS011;39071;52.420;20.896;2022-11-21T00:27:59;26.37;;;8.70;;
21188;SDS011;39071;52.420;20.896;2022-11-21T00:30:25;14.83;;;6.37;;
21188;SDS011;39071;52.420;20.896;2022-11-21T00:32:51;20.63;;;6.83;;
21188;SDS011;39071;52.420;20.896;2022-11-21T00:35:17;19.33;;;7.00;;
21188;SDS011;39071;52.420;20.896;2022-11-21T00:37:43;21.00;;;6.90;;
21188;SDS011;39071;52.420;20.896;2022-11-21T00:40:09;25.47;;;6.77;;
21188;SDS011;39071;52.420;20.896;2022-11-21T00:42:35;27.47;;;10.50;;
21188;SDS011;39071;52.420;20.896;2022-11-21T00:45:00;22.20;;;9.80;;
21188;SDS011;39071;52.420;20.896;2022-11-21T00:47:26;16.87;;;6.70;;
21188;SDS011;39071;52.420;20.896;2022-11-21T00:49:52;22.67;;;8.83;;
21188;SDS011;39071;52.420;20.896;2022-11-21T00:52:18;21.00;;;7.20;;
21188;SDS011;39071;52.420;20.896;2022-11-21T00:54:43;17.13;;;7.53;;
21188;SDS011;39071;52.420;20.896;2022-11-21T00:57:09;23.50;;;9.60;;
21188;SDS011;39071;52.420;20.896;2022-11-21T00:59:35;23.87;;;9.40;;
21188;SDS011;39071;52.420;20.896;2022-11-21T01:02:00;15.47;;;8.43;;
21188;SDS011;39071;52.420;20.896;2022-11-21T01:04:29;17.87;;;7.73;;
21188;SDS011;39071;52.420;20.896;2022-11-21T01:06:56;29.57;;;8.10;;
21188;SDS011;39071;52.420;20.896;2022-11-21T01:09:22;14.77;;;7.63;;
21188;SDS011;39071;52.420;20.896;2022-11-21T01:11:48;15.77;;;7.03;;
21188;SDS011;39071;52.420;20.896;2022-11-21T01:14:13;9.50;;;6.27;;
21188;SDS011;39071;52.420;20.896;2022-11-21T01:16:39;22.53;;;8.10;;
21188;SDS011;39071;52.420;20.896;2022-11-21T01:19:05;16.27;;;7.13;;
21188;SDS011;39071;52.420;20.896;2022-11-21T01:21:31;9.47;;;3.87;;
21188;SDS011;39071;52.420;20.896;2022-11-21T01:24:00;24.83;;;6.60;;
21188;SDS011;39071;52.420;20.896;2022-11-21T01:26:27;8.10;;;5.77;;
21188;SDS011;39071;52.420;20.896;2022-11-21T01:28:54;17.20;;;5.90;;
21188;SDS011;39071;52.420;20.896;2022-11-21T01:31:22;16.17;;;7.03;;
21188;SDS011;39071;52.420;20.896;2022-11-21T01:33:50;17.50;;;6.63;;
21188;SDS011;39071;52.420;20.896;2022-11-21T01:36:20;14.90;;;7.63;;
21188;SDS011;39071;52.420;20.896;2022-11-21T01:38:50;9.80;;;5.57;;
21188;SDS011;39071;52.420;20.896;2022-11-21T01:41:22;14.53;;;5.20;;
21188;SDS011;39071;52.420;20.896;2022-11-21T01:43:55;17.53;;;5.60;;
21188;SDS011;39071;52.420;20.896;2022-11-21T01:46:22;18.23;;;5.20;;
21188;SDS011;39071;52.420;20.896;2022-11-21T01:48:53;4.70;;;2.40;;
21188;SDS011;39071;52.420;20.896;2022-11-21T01:54:15;6.40;;;5.43;;
21188;SDS011;39071;52.420;20.896;2022-11-21T01:56:46;10.23;;;5.27;;
21188;SDS011;39071;52.420;20.896;2022-11-21T01:59:30;21.47;;;6.60;;
21188;SDS011;39071;52.420;20.896;2022-11-21T02:02:01;19.93;;;6.23;;
21188;SDS011;39071;52.420;20.896;2022-11-21T02:04:29;16.57;;;9.00;;
21188;SDS011;39071;52.420;20.896;2022-11-21T02:06:57;11.00;;;5.17;;
21188;SDS011;39071;52.420;20.896;2022-11-21T02:09:25;14.63;;;6.60;;
21188;SDS011;39071;52.420;20.896;2022-11-21T02:12:14;11.03;;;5.07;;
21188;SDS011;39071;52.420;20.896;2022-11-21T02:14:42;8.07;;;3.97;;
21188;SDS011;39071;52.420;20.896;2022-11-21T02:17:08;12.80;;;3.97;;
21188;SDS011;39071;52.420;20.896;2022-11-21T02:19:45;17.47;;;8.07;;
21188;SDS011;39071;52.420;20.896;2022-11-21T02:22:18;11.70;;;5.07;;
21188;SDS011;39071;52.420;20.896;2022-11-21T02:25:02;11.00;;;5.97;;
21188;SDS011;39071;52.420;20.896;2022-11-21T02:27:28;13.60;;;4.47;;
21188;SDS011;39071;52.420;20.896;2022-11-21T02:29:54;7.30;;;4.03;;
21188;SDS011;39071;52.420;20.896;2022-11-21T02:32:20;6.33;;;3.70;;
21188;SDS011;39071;52.420;20.896;2022-11-21T02:34:55;9.47;;;3.77;;
21188;SDS011;39071;52.420;20.896;2022-11-21T02:37:21;10.13;;;3.67;;
21188;SDS011;39071;52.420;20.896;2022-11-21T02:39:47;13.53;;;4.03;;
21188;SDS011;39071;52.420;20.896;2022-11-21T02:45:13;15.63;;;5.40;;
21188;SDS011;39071;52.420;20.896;2022-11-21T02:47:43;5.63;;;3.60;;
21188;SDS011;39071;52.420;20.896;2022-11-21T02:50:44;7.37;;;3.47;;
21188;SDS011;39071;52.420;20.896;2022-11-21T02:53:04;6.60;;;5.97;;
21188;SDS011;39071;52.420;20.896;2022-11-21T02:55:32;7.73;;;4.83;;
21188;SDS011;39071;52.420;20.896;2022-11-21T02:57:57;13.80;;;4.90;;
21188;SDS011;39071;52.420;20.896;2022-11-21T03:00:23;6.00;;;3.70;;
21188;SDS011;39071;52.420;20.896;2022-11-21T03:02:49;8.83;;;4.13;;
21188;SDS011;39071;52.420;20.896;2022-11-21T03:05:16;4.97;;;3.40;;
21188;SDS011;39071;52.420;20.896;2022-11-21T03:07:43;5.73;;;2.63;;
21188;SDS011;39071;52.420;20.896;2022-11-21T03:10:09;7.47;;;6.77;;
21188;SDS011;39071;52.420;20.896;2022-11-21T03:12:36;5.73;;;3.50;;
21188;SDS011;39071;52.420;20.896;2022-11-21T03:15:03;14.03;;;6.07;;
21188;SDS011;39071;52.420;20.896;2022-11-21T03:17:30;9.03;;;4.97;;
21188;SDS011;39071;52.420;20.896;2022-11-21T03:19:56;13.27;;;7.70;;
21188;SDS011;39071;52.420;20.896;2022-11-21T03:22:21;15.60;;;5.90;;
21188;SDS011;39071;52.420;20.896;2022-11-21T03:24:47;14.73;;;2.93;;
21188;SDS011;39071;52.420;20.896;2022-11-21T03:27:13;9.93;;;5.30;;
21188;SDS011;39071;52.420;20.896;2022-11-21T03:29:39;11.07;;;4.23;;
21188;SDS011;39071;52.420;20.896;2022-11-21T03:32:05;5.27;;;4.07;;
21188;SDS011;39071;52.420;20.896;2022-11-21T03:34:30;21.37;;;6.77;;
21188;SDS011;39071;52.420;20.896;2022-11-21T03:36:56;7.57;;;4.63;;
21188;SDS011;39071;52.420;20.896;2022-11-21T03:39:22;8.73;;;4.93;;
21188;SDS011;39071;52.420;20.896;2022-11-21T03:41:47;6.67;;;3.40;;
21188;SDS011;39071;52.420;20.896;2022-11-21T03:44:13;20.53;;;3.93;;
21188;SDS011;39071;52.420;20.896;2022-11-21T03:46:39;9.03;;;4.00;;
21188;SDS011;39071;52.420;20.896;2022-11-21T03:49:10;8.57;;;3.67;;
21188;SDS011;39071;52.420;20.896;2022-11-21T03:51:37;3.20;;;2.23;;
21188;SDS011;39071;52.420;20.896;2022-11-21T03:54:03;17.93;;;5.47;;
21188;SDS011;39071;52.420;20.896;2022-11-21T03:56:29;9.27;;;3.87;;
21188;SDS011;39071;52.420;20.896;2022-11-21T03:58:55;4.90;;;3.47;;
21188;SDS011;39071;52.420;20.896;2022-11-21T04:01:21;11.20;;;7.10;;
21188;SDS011;39071;52.420;20.896;2022-11-21T04:03:47;4.53;;;3.63;;
21188;SDS011;39071;52.420;20.896;2022-11-21T04:06:14;5.77;;;3.23;;
21188;SDS011;39071;52.420;20.896;2022-11-21T04:08:41;10.90;;;3.43;;
21188;SDS011;39071;52.420;20.896;2022-11-21T04:11:07;14.63;;;4.70;;
21188;SDS011;39071;52.420;20.896;2022-11-21T04:13:33;19.80;;;6.93;;
21188;SDS011;39071;52.420;20.896;2022-11-21T04:15:59;17.57;;;6.00;;
21188;SDS011;39071;52.420;20.896;2022-11-21T04:18:25;7.03;;;4.70;;
21188;SDS011;39071;52.420;20.896;2022-11-21T04:20:58;6.63;;;4.40;;
21188;SDS011;39071;52.420;20.896;2022-11-21T04:23:25;17.07;;;3.80;;
21188;SDS011;39071;52.420;20.896;2022-11-21T04:25:51;9.37;;;5.10;;
21188;SDS011;39071;52.420;20.896;2022-11-21T04:28:18;13.63;;;4.03;;
21188;SDS011;39071;52.420;20.896;2022-11-21T04:30:44;12.57;;;6.10;;
21188;SDS011;39071;52.420;20.896;2022-11-21T04:33:10;12.20;;;4.60;;
21188;SDS011;39071;52.420;20.896;2022-11-21T04:35:37;6.23;;;3.93;;
21188;SDS011;39071;52.420;20.896;2022-11-21T04:38:03;6.53;;;4.10;;
21188;SDS011;39071;52.420;20.896;2022-11-21T04:40:28;11.37;;;3.40;;
21188;SDS011;39071;52.420;20.896;2022-11-21T04:42:54;10.70;;;3.23;;
21188;SDS011;39071;52.420;20.896;2022-11-21T04:45:20;10.03;;;5.83;;
21188;SDS011;39071;52.420;20.896;2022-11-21T04:47:45;15.57;;;2.53;;
21188;SDS011;39071;52.420;20.896;2022-11-21T04:50:12;6.87;;;4.23;;
21188;SDS011;39071;52.420;20.896;2022-11-21T04:52:42;5.60;;;3.80;;
21188;SDS011;39071;52.420;20.896;2022-11-21T04:55:17;10.37;;;4.47;;
21188;SDS011;39071;52.420;20.896;2022-11-21T04:57:43;11.00;;;3.90;;
21188;SDS011;39071;52.420;20.896;2022-11-21T05:00:09;6.83;;;4.23;;
21188;SDS011;39071;52.420;20.896;2022-11-21T05:02:36;7.10;;;4.43;;
21188;SDS011;39071;52.420;20.896;2022-11-21T05:05:01;13.57;;;4.87;;
21188;SDS011;39071;52.420;20.896;2022-11-21T05:07:27;4.43;;;4.07;;
21188;SDS011;39071;52.420;20.896;2022-11-21T05:09:53;20.90;;;6.30;;
21188;SDS011;39071;52.420;20.896;2022-11-21T05:12:18;6.40;;;5.47;;
21188;SDS011;39071;52.420;20.896;2022-11-21T05:15:03;8.33;;;4.23;;
21188;SDS011;39071;52.420;20.896;2022-11-21T05:17:28;8.20;;;4.00;;
21188;SDS011;39071;52.420;20.896;2022-11-21T05:19:54;9.27;;;5.00;;
21188;SDS011;39071;52.420;20.896;2022-11-21T05:22:20;15.53;;;4.07;;
21188;SDS011;39071;52.420;20.896;2022-11-21T05:24:46;7.00;;;4.47;;
21188;SDS011;39071;52.420;20.896;2022-11-21T05:27:12;5.03;;;3.83;;
21188;SDS011;39071;52.420;20.896;2022-11-21T05:29:37;6.67;;;3.87;;
21188;SDS011;39071;52.420;20.896;2022-11-21T05:32:03;5.80;;;3.87;;
21188;SDS011;39071;52.420;20.896;2022-11-21T05:34:29;7.67;;;4.57;;
21188;SDS011;39071;52.420;20.896;2022-11-21T05:36:54;13.27;;;5.33;;
21188;SDS011;39071;52.420;20.896;2022-11-21T05:39:22;16.87;;;6.80;;
21188;SDS011;39071;52.420;20.896;2022-11-21T05:41:48;15.53;;;5.70;;
21188;SDS011;39071;52.420;20.896;2022-11-21T05:44:13;11.13;;;4.07;;
21188;SDS011;39071;52.420;20.896;2022-11-21T05:46:39;14.17;;;6.03;;
21188;SDS011;39071;52.420;20.896;2022-11-21T05:49:05;8.63;;;5.37;;
21188;SDS011;39071;52.420;20.896;2022-11-21T05:51:31;11.63;;;4.00;;
21188;SDS011;39071;52.420;20.896;2022-11-21T05:53:57;8.00;;;5.63;;
21188;SDS011;39071;52.420;20.896;2022-11-21T05:56:23;10.67;;;4.97;;
21188;SDS011;39071;52.420;20.896;2022-11-21T05:58:49;8.60;;;3.93;;
21188;SDS011;39071;52.420;20.896;2022-11-21T06:01:15;6.07;;;5.57;;
21188;SDS011;39071;52.420;20.896;2022-11-21T06:04:01;9.80;;;3.47;;
21188;SDS011;39071;52.420;20.896;2022-11-21T06:06:27;5.27;;;4.13;;
21188;SDS011;39071;52.420;20.896;2022-11-21T06:08:52;21.83;;;6.23;;
21188;SDS011;39071;52.420;20.896;2022-11-21T06:11:18;5.70;;;4.63;;
21188;SDS011;39071;52.420;20.896;2022-11-21T06:13:44;12.17;;;4.03;;
21188;SDS011;39071;52.420;20.896;2022-11-21T06:16:13;18.43;;;5.17;;
21188;SDS011;39071;52.420;20.896;2022-11-21T06:18:41;24.83;;;7.70;;
21188;SDS011;39071;52.420;20.896;2022-11-21T06:21:13;2.17;;;2.03;;
21188;SDS011;39071;52.420;20.896;2022-11-21T06:23:40;11.00;;;3.17;;
21188;SDS011;39071;52.420;20.896;2022-11-21T06:26:06;3.13;;;3.00;;
21188;SDS011;39071;52.420;20.896;2022-11-21T06:28:36;19.90;;;7.23;;
21188;SDS011;39071;52.420;20.896;2022-11-21T06:31:04;7.70;;;5.23;;
21188;SDS011;39071;52.420;20.896;2022-11-21T06:33:30;22.37;;;4.00;;
21188;SDS011;39071;52.420;20.896;2022-11-21T06:35:57;7.57;;;4.30;;
21188;SDS011;39071;52.420;20.896;2022-11-21T06:38:26;10.87;;;4.20;;
21188;SDS011;39071;52.420;20.896;2022-11-21T06:40:51;10.90;;;4.53;;
21188;SDS011;39071;52.420;20.896;2022-11-21T06:43:17;8.33;;;2.73;;
21188;SDS011;39071;52.420;20.896;2022-11-21T06:45:43;9.47;;;4.27;;
21188;SDS011;39071;52.420;20.896;2022-11-21T06:48:08;11.13;;;4.87;;
21188;SDS011;39071;52.420;20.896;2022-11-21T06:50:34;14.53;;;4.73;;
21188;SDS011;39071;52.420;20.896;2022-11-21T06:53:00;8.73;;;5.83;;
21188;SDS011;39071;52.420;20.896;2022-11-21T06:55:26;5.67;;;3.97;;
21188;SDS011;39071;52.420;20.896;2022-11-21T06:57:55;11.70;;;5.60;;
21188;SDS011;39071;52.420;20.896;2022-11-21T07:00:22;9.57;;;3.00;;
21188;SDS011;39071;52.420;20.896;2022-11-21T07:02:48;12.83;;;4.20;;
21188;SDS011;39071;52.420;20.896;2022-11-21T07:05:14;20.63;;;4.10;;
21188;SDS011;39071;52.420;20.896;2022-11-21T07:07:40;9.03;;;5.13;;
21188;SDS011;39071;52.420;20.896;2022-11-21T07:10:06;17.20;;;8.53;;
21188;SDS011;39071;52.420;20.896;2022-11-21T07:12:33;6.77;;;5.57;;
21188;SDS011;39071;52.420;20.896;2022-11-21T07:15:18;8.33;;;4.10;;
21188;SDS011;39071;52.420;20.896;2022-11-21T07:17:44;20.43;;;9.37;;
21188;SDS011;39071;52.420;20.896;2022-11-21T07:20:09;11.53;;;5.83;;
21188;SDS011;39071;52.420;20.896;2022-11-21T07:22:35;16.23;;;7.33;;
21188;SDS011;39071;52.420;20.896;2022-11-21T07:25:01;19.20;;;6.93;;
21188;SDS011;39071;52.420;20.896;2022-11-21T07:27:27;21.30;;;10.77;;
21188;SDS011;39071;52.420;20.896;2022-11-21T07:29:53;12.63;;;6.97;;
21188;SDS011;39071;52.420;20.896;2022-11-21T07:32:21;18.00;;;6.07;;
21188;SDS011;39071;52.420;20.896;2022-11-21T07:34:48;30.53;;;9.13;;
21188;SDS011;39071;52.420;20.896;2022-11-21T07:37:14;26.03;;;8.40;;
21188;SDS011;39071;52.420;20.896;2022-11-21T07:39:39;26.27;;;9.50;;
21188;SDS011;39071;52.420;20.896;2022-11-21T07:42:05;11.70;;;7.00;;
21188;SDS011;39071;52.420;20.896;2022-11-21T07:44:31;16.10;;;6.27;;
21188;SDS011;39071;52.420;20.896;2022-11-21T07:46:56;17.13;;;8.97;;
21188;SDS011;39071;52.420;20.896;2022-11-21T07:49:22;34.73;;;12.13;;
21188;SDS011;39071;52.420;20.896;2022-11-21T07:51:47;17.57;;;7.03;;
21188;SDS011;39071;52.420;20.896;2022-11-21T07:54:13;25.87;;;8.57;;
21188;SDS011;39071;52.420;20.896;2022-11-21T07:56:39;23.67;;;9.30;;
21188;SDS011;39071;52.420;20.896;2022-11-21T07:59:04;22.27;;;9.23;;
21188;SDS011;39071;52.420;20.896;2022-11-21T08:01:30;27.80;;;8.90;;
21188;SDS011;39071;52.420;20.896;2022-11-21T08:03:56;19.50;;;8.73;;
21188;SDS011;39071;52.420;20.896;2022-11-21T08:06:21;27.17;;;9.03;;
21188;SDS011;39071;52.420;20.896;2022-11-21T08:08:51;25.40;;;11.23;;
21188;SDS011;39071;52.420;20.896;2022-11-21T08:11:17;35.83;;;13.27;;
21188;SDS011;39071;52.420;20.896;2022-11-21T08:13:43;29.00;;;12.10;;
21188;SDS011;39071;52.420;20.896;2022-11-21T08:16:09;23.30;;;9.70;;
21188;SDS011;39071;52.420;20.896;2022-11-21T08:18:35;33.83;;;14.07;;
21188;SDS011;39071;52.420;20.896;2022-11-21T08:21:01;28.60;;;10.00;;
21188;SDS011;39071;52.420;20.896;2022-11-21T08:23:27;20.90;;;9.43;;
21188;SDS011;39071;52.420;20.896;2022-11-21T08:25:53;25.53;;;9.23;;
21188;SDS011;39071;52.420;20.896;2022-11-21T08:28:19;29.27;;;12.07;;
21188;SDS011;39071;52.420;20.896;2022-11-21T08:30:45;35.13;;;13.53;;
21188;SDS011;39071;52.420;20.896;2022-11-21T08:33:11;29.80;;;11.50;;
21188;SDS011;39071;52.420;20.896;2022-11-21T08:35:36;33.70;;;12.40;;
21188;SDS011;39071;52.420;20.896;2022-11-21T08:38:02;26.23;;;10.60;;
21188;SDS011;39071;52.420;20.896;2022-11-21T08:40:29;26.10;;;10.17;;
21188;SDS011;39071;52.420;20.896;2022-11-21T08:43:02;26.87;;;9.03;;
21188;SDS011;39071;52.420;20.896;2022-11-21T08:45:29;32.37;;;11.77;;
21188;SDS011;39071;52.420;20.896;2022-11-21T08:47:56;26.03;;;9.73;;
21188;SDS011;39071;52.420;20.896;2022-11-21T08:50:22;41.90;;;11.40;;
21188;SDS011;39071;52.420;20.896;2022-11-21T08:52:48;20.90;;;8.27;;
21188;SDS011;39071;52.420;20.896;2022-11-21T08:55:14;21.60;;;9.40;;
21188;SDS011;39071;52.420;20.896;2022-11-21T08:57:40;32.80;;;10.63;;
21188;SDS011;39071;52.420;20.896;2022-11-21T09:00:07;18.13;;;8.63;;
21188;SDS011;39071;52.420;20.896;2022-11-21T09:02:34;23.83;;;9.27;;
21188;SDS011;39071;52.420;20.896;2022-11-21T09:05:00;20.97;;;8.73;;
21188;SDS011;39071;52.420;20.896;2022-11-21T09:07:26;28.53;;;9.93;;
21188;SDS011;39071;52.420;20.896;2022-11-21T09:09:52;27.27;;;11.37;;
21188;SDS011;39071;52.420;20.896;2022-11-21T09:12:17;31.37;;;11.23;;
21188;SDS011;39071;52.420;20.896;2022-11-21T09:14:43;21.17;;;11.03;;
21188;SDS011;39071;52.420;20.896;2022-11-21T09:17:27;25.23;;;11.57;;
21188;SDS011;39071;52.420;20.896;2022-11-21T09:20:12;39.43;;;12.30;;
21188;SDS011;39071;52.420;20.896;2022-11-21T09:22:38;25.73;;;10.57;;
21188;SDS011;39071;52.420;20.896;2022-11-21T09:25:03;22.57;;;9.20;;
21188;SDS011;39071;52.420;20.896;2022-11-21T09:27:29;32.53;;;12.10;;
21188;SDS011;39071;52.420;20.896;2022-11-21T09:29:55;32.53;;;10.30;;
21188;SDS011;39071;52.420;20.896;2022-11-21T09:32:21;30.43;;;10.00;;
21188;SDS011;39071;52.420;20.896;2022-11-21T09:34:47;25.00;;;9.57;;
21188;SDS011;39071;52.420;20.896;2022-11-21T09:37:13;20.13;;;7.77;;
21188;SDS011;39071;52.420;20.896;2022-11-21T09:39:39;29.97;;;11.17;;
21188;SDS011;39071;52.420;20.896;2022-11-21T09:47:29;18.17;;;7.03;;
21188;SDS011;39071;52.420;20.896;2022-11-21T09:52:29;19.37;;;8.37;;
21188;SDS011;39071;52.420;20.896;2022-11-21T09:57:52;22.93;;;7.83;;
21188;SDS011;39071;52.420;20.896;2022-11-21T10:00:22;20.60;;;9.00;;
21188;SDS011;39071;52.420;20.896;2022-11-21T10:02:51;27.57;;;9.63;;
21188;SDS011;39071;52.420;20.896;2022-11-21T10:05:22;27.10;;;8.03;;
21188;SDS011;39071;52.420;20.896;2022-11-21T10:07:57;16.70;;;6.17;;
21188;SDS011;39071;52.420;20.896;2022-11-21T10:15:56;21.60;;;7.40;;
21188;SDS011;39071;52.420;20.896;2022-11-21T10:31:54;16.27;;;7.97;;
21188;SDS011;39071;52.420;20.896;2022-11-21T10:34:25;12.67;;;6.53;;
21188;SDS011;39071;52.420;20.896;2022-11-21T10:36:59;17.03;;;8.07;;
21188;SDS011;39071;52.420;20.896;2022-11-21T10:39:40;14.23;;;6.23;;
21188;SDS011;39071;52.420;20.896;2022-11-21T10:42:12;22.63;;;8.00;;
21188;SDS011;39071;52.420;20.896;2022-11-21T10:44:44;19.53;;;7.80;;
21188;SDS011;39071;52.420;20.896;2022-11-21T10:47:33;25.17;;;7.63;;
21188;SDS011;39071;52.420;20.896;2022-11-21T10:52:44;17.37;;;7.00;;
21188;SDS011;39071;52.420;20.896;2022-11-21T10:55:17;23.00;;;7.97;;
21188;SDS011;39071;52.420;20.896;2022-11-21T10:57:47;17.67;;;7.63;;
21188;SDS011;39071;52.420;20.896;2022-11-21T11:00:18;12.87;;;6.57;;
21188;SDS011;39071;52.420;20.896;2022-11-21T11:05:22;18.57;;;7.33;;
21188;SDS011;39071;52.420;20.896;2022-11-21T11:07:59;14.40;;;5.73;;
21188;SDS011;39071;52.420;20.896;2022-11-21T11:10:26;19.37;;;6.97;;
21188;SDS011;39071;52.420;20.896;2022-11-21T11:12:52;22.20;;;6.77;;
21188;SDS011;39071;52.420;20.896;2022-11-21T11:15:38;17.37;;;6.70;;
21188;SDS011;39071;52.420;20.896;2022-11-21T11:19:02;15.17;;;5.53;;
21188;SDS011;39071;52.420;20.896;2022-11-21T11:26:33;21.50;;;5.77;;
21188;SDS011;39071;52.420;20.896;2022-11-21T11:29:19;18.03;;;7.73;;
21188;SDS011;39071;52.420;20.896;2022-11-21T11:31:51;14.73;;;6.67;;
21188;SDS011;39071;52.420;20.896;2022-11-21T11:34:23;16.23;;;7.87;;
21188;SDS011;39071;52.420;20.896;2022-11-21T11:49:03;18.60;;;5.30;;
21188;SDS011;39071;52.420;20.896;2022-11-21T11:51:38;11.63;;;5.47;;
21188;SDS011;39071;52.420;20.896;2022-11-21T11:54:28;14.27;;;5.87;;
21188;SDS011;39071;52.420;20.896;2022-11-21T11:57:01;17.70;;;6.97;;
21188;SDS011;39071;52.420;20.896;2022-11-21T11:59:32;14.43;;;5.00;;
21188;SDS011;39071;52.420;20.896;2022-11-21T12:02:06;14.60;;;7.00;;
21188;SDS011;39071;52.420;20.896;2022-11-21T12:04:55;24.20;;;6.90;;
21188;SDS011;39071;52.420;20.896;2022-11-21T12:07:37;13.50;;;4.77;;
21188;SDS011;39071;52.420;20.896;2022-11-21T12:10:58;14.43;;;4.33;;
21188;SDS011;39071;52.420;20.896;2022-11-21T12:13:30;8.93;;;4.20;;
21188;SDS011;39071;52.420;20.896;2022-11-21T12:16:02;12.83;;;6.50;;
21188;SDS011;39071;52.420;20.896;2022-11-21T12:21:34;15.40;;;6.03;;
21188;SDS011;39071;52.420;20.896;2022-11-21T12:24:01;9.73;;;4.87;;
21188;SDS011;39071;52.420;20.896;2022-11-21T12:52:08;12.67;;;6.07;;
21188;SDS011;39071;52.420;20.896;2022-11-21T13:06:03;14.70;;;5.77;;
21188;SDS011;39071;52.420;20.896;2022-11-21T13:08:34;14.27;;;6.73;;
21188;SDS011;39071;52.420;20.896;2022-11-21T13:13:54;15.60;;;8.17;;
21188;SDS011;39071;52.420;20.896;2022-11-21T13:16:26;20.80;;;6.70;;
21188;SDS011;39071;52.420;20.896;2022-11-21T13:19:18;12.20;;;6.40;;
21188;SDS011;39071;52.420;20.896;2022-11-21T13:21:49;18.63;;;7.10;;
21188;SDS011;39071;52.420;20.896;2022-11-21T13:27:29;22.17;;;7.43;;
21188;SDS011;39071;52.420;20.896;2022-11-21T13:45:40;20.07;;;6.93;;
21188;SDS011;39071;52.420;20.896;2022-11-21T13:48:21;23.47;;;8.70;;
21188;SDS011;39071;52.420;20.896;2022-11-21T14:08:23;16.37;;;7.90;;
21188;SDS011;39071;52.420;20.896;2022-11-21T14:10:51;12.67;;;6.87;;
21188;SDS011;39071;52.420;20.896;2022-11-21T14:13:31;10.97;;;5.57;;
21188;SDS011;39071;52.420;20.896;2022-11-21T14:16:07;23.37;;;6.90;;
21188;SDS011;39071;52.420;20.896;2022-11-21T14:19:00;20.30;;;6.50;;
21188;SDS011;39071;52.420;20.896;2022-11-21T14:21:28;16.03;;;7.30;;
21188;SDS011;39071;52.420;20.896;2022-11-21T14:23:56;16.83;;;5.43;;
21188;SDS011;39071;52.420;20.896;2022-11-21T14:26:37;19.50;;;8.37;;
21188;SDS011;39071;52.420;20.896;2022-11-21T14:32:00;37.27;;;10.20;;
21188;SDS011;39071;52.420;20.896;2022-11-21T14:34:27;17.47;;;9.17;;
21188;SDS011;39071;52.420;20.896;2022-11-21T14:36:54;23.43;;;9.83;;
21188;SDS011;39071;52.420;20.896;2022-11-21T14:39:24;21.60;;;9.63;;
21188;SDS011;39071;52.420;20.896;2022-11-21T14:41:55;20.93;;;7.00;;
21188;SDS011;39071;52.420;20.896;2022-11-21T14:44:24;16.17;;;7.07;;
21188;SDS011;39071;52.420;20.896;2022-11-21T14:47:00;23.13;;;9.30;;
21188;SDS011;39071;52.420;20.896;2022-11-21T14:49:36;21.50;;;8.40;;
21188;SDS011;39071;52.420;20.896;2022-11-21T14:52:05;18.03;;;8.53;;
21188;SDS011;39071;52.420;20.896;2022-11-21T14:54:49;21.13;;;8.57;;
21188;SDS011;39071;52.420;20.896;2022-11-21T14:57:23;22.50;;;8.20;;
21188;SDS011;39071;52.420;20.896;2022-11-21T14:59:52;23.23;;;7.17;;
21188;SDS011;39071;52.420;20.896;2022-11-21T15:02:23;30.17;;;8.43;;
21188;SDS011;39071;52.420;20.896;2022-11-21T15:04:51;28.00;;;8.03;;
21188;SDS011;39071;52.420;20.896;2022-11-21T15:09:46;21.57;;;6.33;;
21188;SDS011;39071;52.420;20.896;2022-11-21T15:12:12;23.20;;;8.67;;
21188;SDS011;39071;52.420;20.896;2022-11-21T15:14:46;19.80;;;6.17;;
21188;SDS011;39071;52.420;20.896;2022-11-21T15:17:21;17.43;;;7.23;;
21188;SDS011;39071;52.420;20.896;2022-11-21T15:22:36;20.50;;;7.13;;
21188;SDS011;39071;52.420;20.896;2022-11-21T15:25:04;25.93;;;8.00;;
21188;SDS011;39071;52.420;20.896;2022-11-21T15:27:51;17.93;;;6.87;;
21188;SDS011;39071;52.420;20.896;2022-11-21T15:30:33;19.97;;;7.17;;
21188;SDS011;39071;52.420;20.896;2022-11-21T15:33:01;19.53;;;9.80;;
21188;SDS011;39071;52.420;20.896;2022-11-21T15:46:31;21.77;;;8.27;;
21188;SDS011;39071;52.420;20.896;2022-11-21T15:48:59;21.53;;;7.87;;
21188;SDS011;39071;52.420;20.896;2022-11-21T15:51:28;20.13;;;7.90;;
21188;SDS011;39071;52.420;20.896;2022-11-21T15:54:02;23.60;;;9.37;;
21188;SDS011;39071;52.420;20.896;2022-11-21T15:56:29;27.43;;;9.53;;
21188;SDS011;39071;52.420;20.896;2022-11-21T15:58:55;20.27;;;7.07;;
21188;SDS011;39071;52.420;20.896;2022-11-21T16:01:22;25.03;;;8.77;;
21188;SDS011;39071;52.420;20.896;2022-11-21T16:03:50;20.40;;;8.37;;
21188;SDS011;39071;52.420;20.896;2022-11-21T16:06:17;23.87;;;8.70;;
21188;SDS011;39071;52.420;20.896;2022-11-21T16:08:43;19.17;;;7.23;;
21188;SDS011;39071;52.420;20.896;2022-11-21T16:13:54;23.63;;;8.00;;
21188;SDS011;39071;52.420;20.896;2022-11-21T16:16:23;35.03;;;9.73;;
21188;SDS011;39071;52.420;20.896;2022-11-21T16:18:50;25.30;;;8.47;;
21188;SDS011;39071;52.420;20.896;2022-11-21T16:21:16;26.90;;;7.73;;
21188;SDS011;39071;52.420;20.896;2022-11-21T16:23:42;23.47;;;7.10;;
21188;SDS011;39071;52.420;20.896;2022-11-21T16:26:08;22.87;;;7.67;;
21188;SDS011;39071;52.420;20.896;2022-11-21T16:28:34;16.33;;;6.90;;
21188;SDS011;39071;52.420;20.896;2022-11-21T16:31:01;15.83;;;7.10;;
21188;SDS011;39071;52.420;20.896;2022-11-21T16:33:28;23.47;;;8.00;;
21188;SDS011;39071;52.420;20.896;2022-11-21T16:35:54;18.67;;;8.23;;
21188;SDS011;39071;52.420;20.896;2022-11-21T16:38:24;26.30;;;8.20;;
21188;SDS011;39071;52.420;20.896;2022-11-21T16:40:52;23.07;;;10.13;;
21188;SDS011;39071;52.420;20.896;2022-11-21T16:43:22;18.90;;;9.27;;
21188;SDS011;39071;52.420;20.896;2022-11-21T16:45:48;28.00;;;9.67;;
21188;SDS011;39071;52.420;20.896;2022-11-21T16:48:15;29.93;;;10.83;;
21188;SDS011;39071;52.420;20.896;2022-11-21T16:50:41;23.03;;;9.03;;
21188;SDS011;39071;52.420;20.896;2022-11-21T16:53:06;22.03;;;7.90;;
21188;SDS011;39071;52.420;20.896;2022-11-21T16:55:32;17.83;;;8.37;;
21188;SDS011;39071;52.420;20.896;2022-11-21T16:57:58;23.73;;;7.43;;
21188;SDS011;39071;52.420;20.896;2022-11-21T17:00:25;35.63;;;8.60;;
21188;SDS011;39071;52.420;20.896;2022-11-21T17:02:51;27.57;;;9.90;;
21188;SDS011;39071;52.420;20.896;2022-11-21T17:05:18;22.33;;;9.60;;
21188;SDS011;39071;52.420;20.896;2022-11-21T17:07:44;21.30;;;6.67;;
21188;SDS011;39071;52.420;20.896;2022-11-21T17:10:11;21.33;;;6.63;;
21188;SDS011;39071;52.420;20.896;2022-11-21T17:12:37;23.50;;;8.17;;
21188;SDS011;39071;52.420;20.896;2022-11-21T17:15:04;20.13;;;7.03;;